sensor_id;sensor_type;location;lat;lon;timestamp;P1;durP1;ratioP1;P2;durP2;ratioP2
16254;SDS011;8235;52.198;9.904;2024-03-22T00:01:50;27.27;;;15.87;;
16254;SDS011;8235;52.198;9.904;2024-03-22T00:04:17;26.63;;;15.93;;
16254;SDS011;8235;52.198;9.904;2024-03-22T00:06:43;22.87;;;16.23;;
16254;SDS011;8235;52.198;9.904;2024-03-22T00:09:10;20.90;;;14.83;;
16254;SDS011;8235;52.198;9.904;2024-03-22T00:11:36;27.47;;;16.47;;
16254;SDS011;8235;52.198;9.904;2024-03-22T00:14:03;30.00;;;16.93;;
16254;SDS011;8235;52.198;9.904;2024-03-22T00:16:30;28.60;;;16.77;;
16254;SDS011;8235;52.198;9.904;2024-03-22T00:18:56;28.27;;;16.93;;
16254;SDS011;8235;52.198;9.904;2024-03-22T00:21:22;34.07;;;19.17;;
16254;SDS011;8235;52.198;9.904;2024-03-22T00:23:49;30.43;;;17.47;;
16254;SDS011;8235;52.198;9.904;2024-03-22T00:26:15;32.97;;;19.07;;
16254;SDS011;8235;52.198;9.904;2024-03-22T00:28:42;33.27;;;18.87;;
16254;SDS011;8235;52.198;9.904;2024-03-22T00:31:07;30.70;;;19.13;;
16254;SDS011;8235;52.198;9.904;2024-03-22T00:33:36;28.77;;;18.87;;
16254;SDS011;8235;52.198;9.904;2024-03-22T00:36:02;36.57;;;20.13;;
16254;SDS011;8235;52.198;9.904;2024-03-22T00:38:28;38.33;;;21.23;;
16254;SDS011;8235;52.198;9.904;2024-03-22T00:40:54;41.63;;;22.00;;
16254;SDS011;8235;52.198;9.904;2024-03-22T00:43:21;36.80;;;20.77;;
16254;SDS011;8235;52.198;9.904;2024-03-22T00:45:46;36.47;;;22.23;;
16254;SDS011;8235;52.198;9.904;2024-03-22T00:48:13;37.17;;;21.00;;
16254;SDS011;8235;52.198;9.904;2024-03-22T00:50:40;36.43;;;21.57;;
16254;SDS011;8235;52.198;9.904;2024-03-22T00:53:07;39.93;;;22.83;;
16254;SDS011;8235;52.198;9.904;2024-03-22T00:55:33;38.03;;;23.87;;
16254;SDS011;8235;52.198;9.904;2024-03-22T00:57:59;41.47;;;22.53;;
16254;SDS011;8235;52.198;9.904;2024-03-22T01:00:25;46.57;;;23.03;;
16254;SDS011;8235;52.198;9.904;2024-03-22T01:02:52;43.27;;;23.03;;
16254;SDS011;8235;52.198;9.904;2024-03-22T01:05:17;42.43;;;22.30;;
16254;SDS011;8235;52.198;9.904;2024-03-22T01:07:45;39.50;;;22.77;;
16254;SDS011;8235;52.198;9.904;2024-03-22T01:10:11;43.47;;;22.87;;
16254;SDS011;8235;52.198;9.904;2024-03-22T01:12:38;40.03;;;23.80;;
16254;SDS011;8235;52.198;9.904;2024-03-22T01:15:04;44.63;;;25.27;;
16254;SDS011;8235;52.198;9.904;2024-03-22T01:17:32;43.20;;;23.73;;
16254;SDS011;8235;52.198;9.904;2024-03-22T01:19:58;44.93;;;24.47;;
16254;SDS011;8235;52.198;9.904;2024-03-22T01:22:24;40.97;;;21.93;;
16254;SDS011;8235;52.198;9.904;2024-03-22T01:24:52;41.53;;;23.07;;
16254;SDS011;8235;52.198;9.904;2024-03-22T01:27:19;47.77;;;24.00;;
16254;SDS011;8235;52.198;9.904;2024-03-22T01:29:45;44.20;;;23.17;;
16254;SDS011;8235;52.198;9.904;2024-03-22T01:32:13;44.33;;;23.43;;
16254;SDS011;8235;52.198;9.904;2024-03-22T01:34:39;40.67;;;23.20;;
16254;SDS011;8235;52.198;9.904;2024-03-22T01:37:06;44.07;;;22.87;;
16254;SDS011;8235;52.198;9.904;2024-03-22T01:39:31;42.00;;;23.27;;
16254;SDS011;8235;52.198;9.904;2024-03-22T01:41:59;41.23;;;22.13;;
16254;SDS011;8235;52.198;9.904;2024-03-22T01:44:27;44.40;;;23.43;;
16254;SDS011;8235;52.198;9.904;2024-03-22T01:46:54;42.30;;;23.50;;
16254;SDS011;8235;52.198;9.904;2024-03-22T01:49:20;44.83;;;23.73;;
16254;SDS011;8235;52.198;9.904;2024-03-22T01:51:47;42.80;;;23.77;;
16254;SDS011;8235;52.198;9.904;2024-03-22T01:54:13;40.03;;;23.93;;
16254;SDS011;8235;52.198;9.904;2024-03-22T01:56:42;46.07;;;24.40;;
16254;SDS011;8235;52.198;9.904;2024-03-22T01:59:09;40.00;;;23.70;;
16254;SDS011;8235;52.198;9.904;2024-03-22T02:01:36;45.47;;;23.93;;
16254;SDS011;8235;52.198;9.904;2024-03-22T02:04:01;40.53;;;22.93;;
16254;SDS011;8235;52.198;9.904;2024-03-22T02:06:28;44.80;;;25.77;;
16254;SDS011;8235;52.198;9.904;2024-03-22T02:08:54;40.37;;;24.10;;
16254;SDS011;8235;52.198;9.904;2024-03-22T02:11:22;44.73;;;25.07;;
16254;SDS011;8235;52.198;9.904;2024-03-22T02:13:48;41.77;;;24.13;;
16254;SDS011;8235;52.198;9.904;2024-03-22T02:16:16;44.37;;;24.40;;
16254;SDS011;8235;52.198;9.904;2024-03-22T02:18:42;49.60;;;25.37;;
16254;SDS011;8235;52.198;9.904;2024-03-22T02:21:09;46.07;;;24.03;;
16254;SDS011;8235;52.198;9.904;2024-03-22T02:23:36;45.00;;;23.30;;
16254;SDS011;8235;52.198;9.904;2024-03-22T02:26:04;44.80;;;23.67;;
16254;SDS011;8235;52.198;9.904;2024-03-22T02:28:31;43.70;;;23.30;;
16254;SDS011;8235;52.198;9.904;2024-03-22T02:30:58;43.10;;;25.00;;
16254;SDS011;8235;52.198;9.904;2024-03-22T02:33:24;46.00;;;24.93;;
16254;SDS011;8235;52.198;9.904;2024-03-22T02:35:51;47.63;;;26.13;;
16254;SDS011;8235;52.198;9.904;2024-03-22T02:38:17;45.47;;;23.50;;
16254;SDS011;8235;52.198;9.904;2024-03-22T02:40:46;44.30;;;23.27;;
16254;SDS011;8235;52.198;9.904;2024-03-22T02:43:12;48.67;;;24.87;;
16254;SDS011;8235;52.198;9.904;2024-03-22T02:45:39;44.93;;;23.77;;
16254;SDS011;8235;52.198;9.904;2024-03-22T02:48:05;43.47;;;23.67;;
16254;SDS011;8235;52.198;9.904;2024-03-22T02:50:32;48.63;;;24.30;;
16254;SDS011;8235;52.198;9.904;2024-03-22T02:52:58;45.50;;;24.57;;
16254;SDS011;8235;52.198;9.904;2024-03-22T02:55:25;42.53;;;22.70;;
16254;SDS011;8235;52.198;9.904;2024-03-22T02:57:52;44.33;;;23.10;;
16254;SDS011;8235;52.198;9.904;2024-03-22T03:00:18;48.33;;;24.30;;
16254;SDS011;8235;52.198;9.904;2024-03-22T03:02:45;44.53;;;23.63;;
16254;SDS011;8235;52.198;9.904;2024-03-22T03:05:11;45.73;;;22.93;;
16254;SDS011;8235;52.198;9.904;2024-03-22T03:07:37;42.50;;;22.73;;
16254;SDS011;8235;52.198;9.904;2024-03-22T03:10:04;42.10;;;23.50;;
16254;SDS011;8235;52.198;9.904;2024-03-22T03:12:30;42.50;;;21.43;;
16254;SDS011;8235;52.198;9.904;2024-03-22T03:14:58;38.60;;;21.33;;
16254;SDS011;8235;52.198;9.904;2024-03-22T03:17:23;38.13;;;22.17;;
16254;SDS011;8235;52.198;9.904;2024-03-22T03:19:50;42.87;;;22.63;;
16254;SDS011;8235;52.198;9.904;2024-03-22T03:22:16;39.10;;;21.03;;
16254;SDS011;8235;52.198;9.904;2024-03-22T03:24:43;43.47;;;22.30;;
16254;SDS011;8235;52.198;9.904;2024-03-22T03:27:08;44.93;;;22.63;;
16254;SDS011;8235;52.198;9.904;2024-03-22T03:29:35;41.47;;;21.37;;
16254;SDS011;8235;52.198;9.904;2024-03-22T03:32:03;37.63;;;21.50;;
16254;SDS011;8235;52.198;9.904;2024-03-22T03:34:29;36.10;;;20.73;;
16254;SDS011;8235;52.198;9.904;2024-03-22T03:36:55;39.30;;;21.27;;
16254;SDS011;8235;52.198;9.904;2024-03-22T03:39:25;39.90;;;21.07;;
16254;SDS011;8235;52.198;9.904;2024-03-22T03:41:52;36.77;;;19.83;;
16254;SDS011;8235;52.198;9.904;2024-03-22T03:44:18;36.73;;;20.83;;
16254;SDS011;8235;52.198;9.904;2024-03-22T03:46:44;38.30;;;20.63;;
16254;SDS011;8235;52.198;9.904;2024-03-22T03:49:11;37.23;;;20.20;;
16254;SDS011;8235;52.198;9.904;2024-03-22T03:51:38;32.63;;;18.20;;
16254;SDS011;8235;52.198;9.904;2024-03-22T03:54:03;37.00;;;19.33;;
16254;SDS011;8235;52.198;9.904;2024-03-22T03:56:30;35.40;;;20.83;;
16254;SDS011;8235;52.198;9.904;2024-03-22T03:58:55;37.57;;;19.43;;
16254;SDS011;8235;52.198;9.904;2024-03-22T04:01:22;35.93;;;20.17;;
16254;SDS011;8235;52.198;9.904;2024-03-22T04:03:48;38.53;;;20.13;;
16254;SDS011;8235;52.198;9.904;2024-03-22T04:06:16;36.20;;;20.17;;
16254;SDS011;8235;52.198;9.904;2024-03-22T04:08:42;37.00;;;19.83;;
16254;SDS011;8235;52.198;9.904;2024-03-22T04:11:09;35.07;;;18.17;;
16254;SDS011;8235;52.198;9.904;2024-03-22T04:13:35;35.70;;;19.37;;
16254;SDS011;8235;52.198;9.904;2024-03-22T04:16:01;37.20;;;20.07;;
16254;SDS011;8235;52.198;9.904;2024-03-22T04:18:27;36.73;;;18.77;;
16254;SDS011;8235;52.198;9.904;2024-03-22T04:20:54;32.73;;;18.00;;
16254;SDS011;8235;52.198;9.904;2024-03-22T04:23:22;34.23;;;18.47;;
16254;SDS011;8235;52.198;9.904;2024-03-22T04:25:53;34.17;;;16.37;;
16254;SDS011;8235;52.198;9.904;2024-03-22T04:28:19;34.13;;;18.47;;
16254;SDS011;8235;52.198;9.904;2024-03-22T04:30:53;38.27;;;18.43;;
16254;SDS011;8235;52.198;9.904;2024-03-22T04:33:21;34.60;;;18.17;;
16254;SDS011;8235;52.198;9.904;2024-03-22T04:35:48;35.43;;;18.67;;
16254;SDS011;8235;52.198;9.904;2024-03-22T04:38:13;32.67;;;17.37;;
16254;SDS011;8235;52.198;9.904;2024-03-22T04:40:41;33.00;;;18.17;;
16254;SDS011;8235;52.198;9.904;2024-03-22T04:43:08;33.43;;;18.70;;
16254;SDS011;8235;52.198;9.904;2024-03-22T04:45:34;35.63;;;18.20;;
16254;SDS011;8235;52.198;9.904;2024-03-22T04:48:01;33.80;;;18.73;;
16254;SDS011;8235;52.198;9.904;2024-03-22T04:50:27;33.43;;;16.90;;
16254;SDS011;8235;52.198;9.904;2024-03-22T04:52:54;32.27;;;17.90;;
16254;SDS011;8235;52.198;9.904;2024-03-22T04:55:20;33.07;;;18.67;;
16254;SDS011;8235;52.198;9.904;2024-03-22T04:57:48;31.87;;;17.70;;
16254;SDS011;8235;52.198;9.904;2024-03-22T05:00:15;36.90;;;18.30;;
16254;SDS011;8235;52.198;9.904;2024-03-22T05:02:42;35.37;;;18.93;;
16254;SDS011;8235;52.198;9.904;2024-03-22T05:05:08;27.80;;;16.83;;
16254;SDS011;8235;52.198;9.904;2024-03-22T05:07:34;32.77;;;16.93;;
16254;SDS011;8235;52.198;9.904;2024-03-22T05:10:00;28.83;;;15.73;;
16254;SDS011;8235;52.198;9.904;2024-03-22T05:12:26;31.67;;;17.57;;
16254;SDS011;8235;52.198;9.904;2024-03-22T05:14:53;38.77;;;17.67;;
16254;SDS011;8235;52.198;9.904;2024-03-22T05:17:20;34.70;;;18.10;;
16254;SDS011;8235;52.198;9.904;2024-03-22T05:19:46;33.13;;;17.93;;
16254;SDS011;8235;52.198;9.904;2024-03-22T05:22:12;32.43;;;17.43;;
16254;SDS011;8235;52.198;9.904;2024-03-22T05:24:38;34.27;;;18.57;;
16254;SDS011;8235;52.198;9.904;2024-03-22T05:27:05;34.10;;;17.80;;
16254;SDS011;8235;52.198;9.904;2024-03-22T05:29:30;36.03;;;17.60;;
16254;SDS011;8235;52.198;9.904;2024-03-22T05:31:58;37.37;;;18.50;;
16254;SDS011;8235;52.198;9.904;2024-03-22T05:34:25;34.47;;;18.30;;
16254;SDS011;8235;52.198;9.904;2024-03-22T05:36:52;34.07;;;18.50;;
16254;SDS011;8235;52.198;9.904;2024-03-22T05:39:17;30.33;;;16.67;;
16254;SDS011;8235;52.198;9.904;2024-03-22T05:41:44;33.43;;;18.03;;
16254;SDS011;8235;52.198;9.904;2024-03-22T05:44:11;34.50;;;17.37;;
16254;SDS011;8235;52.198;9.904;2024-03-22T05:46:37;32.73;;;17.70;;
16254;SDS011;8235;52.198;9.904;2024-03-22T05:49:04;34.93;;;18.07;;
16254;SDS011;8235;52.198;9.904;2024-03-22T05:51:31;33.83;;;18.37;;
16254;SDS011;8235;52.198;9.904;2024-03-22T05:53:57;33.30;;;18.10;;
16254;SDS011;8235;52.198;9.904;2024-03-22T05:56:23;29.27;;;16.87;;
16254;SDS011;8235;52.198;9.904;2024-03-22T05:58:49;31.73;;;16.10;;
16254;SDS011;8235;52.198;9.904;2024-03-22T06:01:15;34.33;;;18.00;;
16254;SDS011;8235;52.198;9.904;2024-03-22T06:03:41;32.70;;;17.40;;
16254;SDS011;8235;52.198;9.904;2024-03-22T06:06:09;30.30;;;17.40;;
16254;SDS011;8235;52.198;9.904;2024-03-22T06:08:35;32.73;;;17.30;;
16254;SDS011;8235;52.198;9.904;2024-03-22T06:11:04;33.73;;;18.47;;
16254;SDS011;8235;52.198;9.904;2024-03-22T06:13:32;32.47;;;16.47;;
16254;SDS011;8235;52.198;9.904;2024-03-22T06:16:00;31.47;;;16.33;;
16254;SDS011;8235;52.198;9.904;2024-03-22T06:18:25;30.27;;;17.83;;
16254;SDS011;8235;52.198;9.904;2024-03-22T06:20:52;28.80;;;17.00;;
16254;SDS011;8235;52.198;9.904;2024-03-22T06:23:21;30.23;;;16.40;;
16254;SDS011;8235;52.198;9.904;2024-03-22T06:25:51;31.27;;;16.87;;
16254;SDS011;8235;52.198;9.904;2024-03-22T06:28:17;32.10;;;18.87;;
16254;SDS011;8235;52.198;9.904;2024-03-22T06:30:44;29.67;;;16.00;;
16254;SDS011;8235;52.198;9.904;2024-03-22T06:33:09;30.00;;;16.97;;
16254;SDS011;8235;52.198;9.904;2024-03-22T06:35:36;25.57;;;16.23;;
16254;SDS011;8235;52.198;9.904;2024-03-22T06:38:02;29.77;;;16.50;;
16254;SDS011;8235;52.198;9.904;2024-03-22T06:40:30;26.23;;;14.70;;
16254;SDS011;8235;52.198;9.904;2024-03-22T06:42:56;28.53;;;15.80;;
16254;SDS011;8235;52.198;9.904;2024-03-22T06:45:23;25.93;;;15.20;;
16254;SDS011;8235;52.198;9.904;2024-03-22T06:47:49;30.00;;;15.20;;
16254;SDS011;8235;52.198;9.904;2024-03-22T06:50:16;27.03;;;14.63;;
16254;SDS011;8235;52.198;9.904;2024-03-22T06:52:42;27.40;;;16.27;;
16254;SDS011;8235;52.198;9.904;2024-03-22T06:55:09;28.40;;;15.97;;
16254;SDS011;8235;52.198;9.904;2024-03-22T06:57:36;29.93;;;15.23;;
16254;SDS011;8235;52.198;9.904;2024-03-22T07:00:03;31.37;;;15.83;;
16254;SDS011;8235;52.198;9.904;2024-03-22T07:02:29;27.47;;;15.70;;
16254;SDS011;8235;52.198;9.904;2024-03-22T07:04:56;27.30;;;14.93;;
16254;SDS011;8235;52.198;9.904;2024-03-22T07:07:22;26.00;;;14.13;;
16254;SDS011;8235;52.198;9.904;2024-03-22T07:09:48;28.07;;;15.67;;
16254;SDS011;8235;52.198;9.904;2024-03-22T07:12:14;28.63;;;15.30;;
16254;SDS011;8235;52.198;9.904;2024-03-22T07:14:42;26.90;;;15.07;;
16254;SDS011;8235;52.198;9.904;2024-03-22T07:17:08;27.93;;;15.93;;
16254;SDS011;8235;52.198;9.904;2024-03-22T07:19:34;30.33;;;16.40;;
16254;SDS011;8235;52.198;9.904;2024-03-22T07:22:01;31.60;;;15.70;;
16254;SDS011;8235;52.198;9.904;2024-03-22T07:24:27;22.03;;;14.73;;
16254;SDS011;8235;52.198;9.904;2024-03-22T07:26:53;28.27;;;14.87;;
16254;SDS011;8235;52.198;9.904;2024-03-22T07:29:19;27.33;;;14.37;;
16254;SDS011;8235;52.198;9.904;2024-03-22T07:31:47;29.23;;;15.63;;
16254;SDS011;8235;52.198;9.904;2024-03-22T07:34:14;24.70;;;13.97;;
16254;SDS011;8235;52.198;9.904;2024-03-22T07:36:40;27.90;;;14.53;;
16254;SDS011;8235;52.198;9.904;2024-03-22T07:39:07;25.07;;;14.50;;
16254;SDS011;8235;52.198;9.904;2024-03-22T07:41:32;26.67;;;14.63;;
16254;SDS011;8235;52.198;9.904;2024-03-22T07:44:00;25.07;;;13.23;;
16254;SDS011;8235;52.198;9.904;2024-03-22T07:46:25;25.50;;;14.67;;
16254;SDS011;8235;52.198;9.904;2024-03-22T07:48:54;24.43;;;13.50;;
16254;SDS011;8235;52.198;9.904;2024-03-22T07:51:19;29.40;;;14.87;;
16254;SDS011;8235;52.198;9.904;2024-03-22T07:53:46;28.53;;;14.73;;
16254;SDS011;8235;52.198;9.904;2024-03-22T07:56:12;26.77;;;14.70;;
16254;SDS011;8235;52.198;9.904;2024-03-22T07:58:40;24.43;;;13.87;;
16254;SDS011;8235;52.198;9.904;2024-03-22T08:01:06;25.17;;;14.90;;
16254;SDS011;8235;52.198;9.904;2024-03-22T08:03:33;25.03;;;15.13;;
16254;SDS011;8235;52.198;9.904;2024-03-22T08:06:00;21.17;;;13.27;;
16254;SDS011;8235;52.198;9.904;2024-03-22T08:08:29;21.43;;;13.37;;
16254;SDS011;8235;52.198;9.904;2024-03-22T08:10:55;26.50;;;14.60;;
16254;SDS011;8235;52.198;9.904;2024-03-22T08:13:21;22.20;;;13.07;;
16254;SDS011;8235;52.198;9.904;2024-03-22T08:15:47;20.23;;;11.43;;
16254;SDS011;8235;52.198;9.904;2024-03-22T08:18:13;21.40;;;13.73;;
16254;SDS011;8235;52.198;9.904;2024-03-22T08:20:39;19.03;;;12.60;;
16254;SDS011;8235;52.198;9.904;2024-03-22T08:23:13;19.70;;;12.70;;
16254;SDS011;8235;52.198;9.904;2024-03-22T08:25:39;19.73;;;12.33;;
16254;SDS011;8235;52.198;9.904;2024-03-22T08:28:05;21.23;;;13.23;;
16254;SDS011;8235;52.198;9.904;2024-03-22T08:30:31;19.70;;;12.53;;
16254;SDS011;8235;52.198;9.904;2024-03-22T08:32:58;18.57;;;11.77;;
16254;SDS011;8235;52.198;9.904;2024-03-22T08:35:23;20.27;;;12.23;;
16254;SDS011;8235;52.198;9.904;2024-03-22T08:37:50;20.43;;;12.50;;
16254;SDS011;8235;52.198;9.904;2024-03-22T08:40:17;23.60;;;13.83;;
16254;SDS011;8235;52.198;9.904;2024-03-22T08:42:43;20.00;;;12.47;;
16254;SDS011;8235;52.198;9.904;2024-03-22T08:45:09;22.63;;;13.33;;
16254;SDS011;8235;52.198;9.904;2024-03-22T08:47:35;24.20;;;11.57;;
16254;SDS011;8235;52.198;9.904;2024-03-22T08:50:01;18.83;;;12.10;;
16254;SDS011;8235;52.198;9.904;2024-03-22T08:52:28;17.33;;;11.50;;
16254;SDS011;8235;52.198;9.904;2024-03-22T08:54:55;20.47;;;12.63;;
16254;SDS011;8235;52.198;9.904;2024-03-22T08:57:23;17.83;;;11.30;;
16254;SDS011;8235;52.198;9.904;2024-03-22T08:59:49;18.43;;;11.13;;
16254;SDS011;8235;52.198;9.904;2024-03-22T09:02:16;20.03;;;12.47;;
16254;SDS011;8235;52.198;9.904;2024-03-22T09:04:41;19.67;;;12.67;;
16254;SDS011;8235;52.198;9.904;2024-03-22T09:07:08;21.77;;;11.50;;
16254;SDS011;8235;52.198;9.904;2024-03-22T09:09:33;19.50;;;12.17;;
16254;SDS011;8235;52.198;9.904;2024-03-22T09:12:00;18.87;;;12.20;;
16254;SDS011;8235;52.198;9.904;2024-03-22T09:14:28;22.37;;;12.37;;
16254;SDS011;8235;52.198;9.904;2024-03-22T09:16:55;18.93;;;12.13;;
16254;SDS011;8235;52.198;9.904;2024-03-22T09:19:20;17.17;;;10.63;;
16254;SDS011;8235;52.198;9.904;2024-03-22T09:21:47;18.40;;;12.53;;
16254;SDS011;8235;52.198;9.904;2024-03-22T09:24:12;17.70;;;12.17;;
16254;SDS011;8235;52.198;9.904;2024-03-22T09:26:39;19.87;;;11.53;;
16254;SDS011;8235;52.198;9.904;2024-03-22T09:29:05;18.80;;;11.20;;
16254;SDS011;8235;52.198;9.904;2024-03-22T09:31:33;18.77;;;12.07;;
16254;SDS011;8235;52.198;9.904;2024-03-22T09:33:59;17.57;;;11.33;;
16254;SDS011;8235;52.198;9.904;2024-03-22T09:36:26;19.10;;;12.00;;
16254;SDS011;8235;52.198;9.904;2024-03-22T09:38:52;17.00;;;11.47;;
16254;SDS011;8235;52.198;9.904;2024-03-22T09:41:19;18.07;;;10.50;;
16254;SDS011;8235;52.198;9.904;2024-03-22T09:43:49;16.80;;;11.70;;
16254;SDS011;8235;52.198;9.904;2024-03-22T09:46:18;17.70;;;11.27;;
16254;SDS011;8235;52.198;9.904;2024-03-22T09:48:46;18.07;;;10.77;;
16254;SDS011;8235;52.198;9.904;2024-03-22T09:51:14;17.27;;;10.63;;
16254;SDS011;8235;52.198;9.904;2024-03-22T09:53:42;19.73;;;11.17;;
16254;SDS011;8235;52.198;9.904;2024-03-22T09:56:11;12.63;;;9.77;;
16254;SDS011;8235;52.198;9.904;2024-03-22T09:58:39;16.63;;;10.30;;
16254;SDS011;8235;52.198;9.904;2024-03-22T10:01:06;13.70;;;10.40;;
16254;SDS011;8235;52.198;9.904;2024-03-22T10:03:32;19.67;;;10.07;;
16254;SDS011;8235;52.198;9.904;2024-03-22T10:06:01;14.07;;;9.63;;
16254;SDS011;8235;52.198;9.904;2024-03-22T10:08:26;16.73;;;10.47;;
16254;SDS011;8235;52.198;9.904;2024-03-22T10:10:53;14.00;;;9.60;;
16254;SDS011;8235;52.198;9.904;2024-03-22T10:13:19;15.03;;;9.33;;
16254;SDS011;8235;52.198;9.904;2024-03-22T10:15:45;14.57;;;9.80;;
16254;SDS011;8235;52.198;9.904;2024-03-22T10:18:11;12.70;;;9.30;;
16254;SDS011;8235;52.198;9.904;2024-03-22T10:20:40;14.87;;;9.83;;
16254;SDS011;8235;52.198;9.904;2024-03-22T10:23:07;15.00;;;9.30;;
16254;SDS011;8235;52.198;9.904;2024-03-22T10:25:34;13.33;;;9.53;;
16254;SDS011;8235;52.198;9.904;2024-03-22T10:28:01;13.67;;;9.17;;
16254;SDS011;8235;52.198;9.904;2024-03-22T10:30:27;13.50;;;8.33;;
16254;SDS011;8235;52.198;9.904;2024-03-22T10:32:54;11.07;;;7.03;;
16254;SDS011;8235;52.198;9.904;2024-03-22T10:35:20;12.27;;;7.80;;
16254;SDS011;8235;52.198;9.904;2024-03-22T10:37:48;11.60;;;7.37;;
16254;SDS011;8235;52.198;9.904;2024-03-22T10:40:18;9.80;;;6.70;;
16254;SDS011;8235;52.198;9.904;2024-03-22T10:42:45;8.23;;;6.50;;
16254;SDS011;8235;52.198;9.904;2024-03-22T10:45:12;9.57;;;6.20;;
16254;SDS011;8235;52.198;9.904;2024-03-22T10:47:38;7.53;;;6.13;;
16254;SDS011;8235;52.198;9.904;2024-03-22T10:50:05;7.67;;;5.10;;
16254;SDS011;8235;52.198;9.904;2024-03-22T10:52:33;9.53;;;6.43;;
16254;SDS011;8235;52.198;9.904;2024-03-22T10:55:04;8.67;;;5.87;;
16254;SDS011;8235;52.198;9.904;2024-03-22T10:57:34;10.60;;;6.27;;
16254;SDS011;8235;52.198;9.904;2024-03-22T11:00:03;9.93;;;6.67;;
16254;SDS011;8235;52.198;9.904;2024-03-22T11:02:35;9.03;;;6.40;;
16254;SDS011;8235;52.198;9.904;2024-03-22T11:05:02;9.40;;;7.03;;
16254;SDS011;8235;52.198;9.904;2024-03-22T11:07:28;9.17;;;7.07;;
16254;SDS011;8235;52.198;9.904;2024-03-22T11:09:56;11.17;;;6.80;;
16254;SDS011;8235;52.198;9.904;2024-03-22T11:12:23;10.93;;;6.97;;
16254;SDS011;8235;52.198;9.904;2024-03-22T11:14:52;8.77;;;6.50;;
16254;SDS011;8235;52.198;9.904;2024-03-22T11:17:18;10.13;;;7.07;;
16254;SDS011;8235;52.198;9.904;2024-03-22T11:19:46;9.23;;;7.03;;
16254;SDS011;8235;52.198;9.904;2024-03-22T11:22:11;9.60;;;6.93;;
16254;SDS011;8235;52.198;9.904;2024-03-22T11:24:39;11.17;;;7.37;;
16254;SDS011;8235;52.198;9.904;2024-03-22T11:27:05;10.50;;;6.80;;
16254;SDS011;8235;52.198;9.904;2024-03-22T11:29:32;8.77;;;7.07;;
16254;SDS011;8235;52.198;9.904;2024-03-22T11:32:00;13.57;;;7.50;;
16254;SDS011;8235;52.198;9.904;2024-03-22T11:34:27;10.23;;;7.23;;
16254;SDS011;8235;52.198;9.904;2024-03-22T11:36:53;11.87;;;8.00;;
16254;SDS011;8235;52.198;9.904;2024-03-22T11:39:21;12.17;;;7.77;;
16254;SDS011;8235;52.198;9.904;2024-03-22T11:41:47;11.10;;;7.80;;
16254;SDS011;8235;52.198;9.904;2024-03-22T11:44:15;10.80;;;7.70;;
16254;SDS011;8235;52.198;9.904;2024-03-22T11:46:43;9.47;;;8.03;;
16254;SDS011;8235;52.198;9.904;2024-03-22T11:49:11;11.83;;;8.10;;
16254;SDS011;8235;52.198;9.904;2024-03-22T11:51:38;11.80;;;8.07;;
16254;SDS011;8235;52.198;9.904;2024-03-22T11:54:05;11.73;;;8.03;;
16254;SDS011;8235;52.198;9.904;2024-03-22T11:56:34;9.33;;;7.83;;
16254;SDS011;8235;52.198;9.904;2024-03-22T11:59:00;10.30;;;7.87;;
16254;SDS011;8235;52.198;9.904;2024-03-22T12:01:28;11.00;;;7.77;;
16254;SDS011;8235;52.198;9.904;2024-03-22T12:03:54;11.87;;;7.80;;
16254;SDS011;8235;52.198;9.904;2024-03-22T12:06:22;10.57;;;7.83;;
16254;SDS011;8235;52.198;9.904;2024-03-22T12:08:48;11.70;;;7.83;;
16254;SDS011;8235;52.198;9.904;2024-03-22T12:11:15;10.50;;;8.00;;
16254;SDS011;8235;52.198;9.904;2024-03-22T12:13:40;9.20;;;7.50;;
16254;SDS011;8235;52.198;9.904;2024-03-22T12:16:07;10.80;;;8.17;;
16254;SDS011;8235;52.198;9.904;2024-03-22T12:18:33;14.80;;;8.20;;
16254;SDS011;8235;52.198;9.904;2024-03-22T12:20:59;9.70;;;8.10;;
16254;SDS011;8235;52.198;9.904;2024-03-22T12:23:27;9.53;;;7.40;;
16254;SDS011;8235;52.198;9.904;2024-03-22T12:25:53;14.03;;;8.00;;
16254;SDS011;8235;52.198;9.904;2024-03-22T12:28:21;12.77;;;8.27;;
16254;SDS011;8235;52.198;9.904;2024-03-22T12:30:47;10.97;;;8.17;;
16254;SDS011;8235;52.198;9.904;2024-03-22T12:33:14;10.53;;;8.07;;
16254;SDS011;8235;52.198;9.904;2024-03-22T12:35:40;11.03;;;7.77;;
16254;SDS011;8235;52.198;9.904;2024-03-22T12:38:06;14.60;;;8.43;;
16254;SDS011;8235;52.198;9.904;2024-03-22T12:40:36;10.23;;;7.50;;
16254;SDS011;8235;52.198;9.904;2024-03-22T12:43:03;12.07;;;8.47;;
16254;SDS011;8235;52.198;9.904;2024-03-22T12:45:30;10.87;;;7.80;;
16254;SDS011;8235;52.198;9.904;2024-03-22T12:47:55;16.37;;;9.40;;
16254;SDS011;8235;52.198;9.904;2024-03-22T12:50:22;12.33;;;8.43;;
16254;SDS011;8235;52.198;9.904;2024-03-22T12:52:48;11.70;;;8.93;;
16254;SDS011;8235;52.198;9.904;2024-03-22T12:55:14;11.87;;;9.07;;
16254;SDS011;8235;52.198;9.904;2024-03-22T12:57:41;12.23;;;10.33;;
16254;SDS011;8235;52.198;9.904;2024-03-22T13:00:09;13.17;;;10.03;;
16254;SDS011;8235;52.198;9.904;2024-03-22T13:02:38;12.77;;;10.20;;
16254;SDS011;8235;52.198;9.904;2024-03-22T13:05:05;14.50;;;11.27;;
16254;SDS011;8235;52.198;9.904;2024-03-22T13:07:32;14.70;;;10.97;;
16254;SDS011;8235;52.198;9.904;2024-03-22T13:09:58;18.10;;;12.70;;
16254;SDS011;8235;52.198;9.904;2024-03-22T13:12:25;13.67;;;11.27;;
16254;SDS011;8235;52.198;9.904;2024-03-22T13:14:53;15.50;;;12.33;;
16254;SDS011;8235;52.198;9.904;2024-03-22T13:17:19;15.47;;;11.97;;
16254;SDS011;8235;52.198;9.904;2024-03-22T13:19:46;16.90;;;12.37;;
16254;SDS011;8235;52.198;9.904;2024-03-22T13:22:12;18.53;;;13.57;;
16254;SDS011;8235;52.198;9.904;2024-03-22T13:24:41;14.57;;;12.90;;
16254;SDS011;8235;52.198;9.904;2024-03-22T13:27:06;23.50;;;14.80;;
16254;SDS011;8235;52.198;9.904;2024-03-22T13:29:34;16.83;;;13.93;;
16254;SDS011;8235;52.198;9.904;2024-03-22T13:32:01;17.37;;;13.87;;
16254;SDS011;8235;52.198;9.904;2024-03-22T13:34:27;19.50;;;14.10;;
16254;SDS011;8235;52.198;9.904;2024-03-22T13:36:53;18.93;;;14.43;;
16254;SDS011;8235;52.198;9.904;2024-03-22T13:39:20;18.97;;;14.00;;
16254;SDS011;8235;52.198;9.904;2024-03-22T13:41:45;18.07;;;14.40;;
16254;SDS011;8235;52.198;9.904;2024-03-22T13:44:12;19.77;;;14.47;;
16254;SDS011;8235;52.198;9.904;2024-03-22T13:46:38;20.47;;;15.93;;
16254;SDS011;8235;52.198;9.904;2024-03-22T13:49:12;17.77;;;13.87;;
16254;SDS011;8235;52.198;9.904;2024-03-22T13:51:40;19.37;;;14.67;;
16254;SDS011;8235;52.198;9.904;2024-03-22T13:54:07;20.00;;;15.90;;
16254;SDS011;8235;52.198;9.904;2024-03-22T13:56:33;20.93;;;15.33;;
16254;SDS011;8235;52.198;9.904;2024-03-22T13:58:59;19.70;;;15.60;;
16254;SDS011;8235;52.198;9.904;2024-03-22T14:01:25;17.60;;;14.50;;
16254;SDS011;8235;52.198;9.904;2024-03-22T14:03:52;17.77;;;14.00;;
16254;SDS011;8235;52.198;9.904;2024-03-22T14:06:19;17.73;;;13.97;;
16254;SDS011;8235;52.198;9.904;2024-03-22T14:08:46;15.77;;;13.90;;
16254;SDS011;8235;52.198;9.904;2024-03-22T14:11:11;18.90;;;15.57;;
16254;SDS011;8235;52.198;9.904;2024-03-22T14:13:38;19.00;;;14.90;;
16254;SDS011;8235;52.198;9.904;2024-03-22T14:16:04;17.97;;;14.70;;
16254;SDS011;8235;52.198;9.904;2024-03-22T14:18:32;23.20;;;16.37;;
16254;SDS011;8235;52.198;9.904;2024-03-22T14:20:58;24.77;;;17.03;;
16254;SDS011;8235;52.198;9.904;2024-03-22T14:23:26;21.73;;;16.03;;
16254;SDS011;8235;52.198;9.904;2024-03-22T14:25:51;21.67;;;16.50;;
16254;SDS011;8235;52.198;9.904;2024-03-22T14:28:18;21.37;;;15.67;;
16254;SDS011;8235;52.198;9.904;2024-03-22T14:30:43;20.97;;;16.40;;
16254;SDS011;8235;52.198;9.904;2024-03-22T14:33:10;22.43;;;14.93;;
16254;SDS011;8235;52.198;9.904;2024-03-22T14:35:35;23.53;;;15.60;;